Time;durP1;ratioP1;P1;durP2;ratioP2;P2;SDS_P1;SDS_P2;PMS_P1;PMS_P2;Temp;Humidity;BMP_temperature;BMP_pressure;BME280_temperature;BME280_humidity;BME280_pressure;Samples;Min_cycle;Max_cycle;Signal;HPM_P1;HPM_P2
2022/12/24 00:01:38;;;;;;;14.70;10.30;;;7.60;99.90;;;;;;5087518;28;20044;-60
2022/12/24 00:04:04;;;;;;;18.38;10.80;;;7.70;99.90;;;;;;5086023;28;20032;-61
2022/12/24 00:06:30;;;;;;;16.42;11.27;;;;;;;;;;5086703;28;20036;-62
2022/12/24 00:08:56;;;;;;;18.02;10.35;;;;;;;;;;5087697;28;20159;-61
2022/12/24 00:11:22;;;;;;;18.15;9.65;;;;;;;;;;5069510;28;20055;-62
2022/12/24 00:13:48;;;;;;;16.20;11.13;;;7.80;99.90;;;;;;5087899;28;20092;-61
2022/12/24 00:16:14;;;;;;;18.92;10.50;;;7.80;99.90;;;;;;5078564;28;20501;-61
2022/12/24 00:18:40;;;;;;;16.05;10.40;;;7.80;99.90;;;;;;5087548;28;20032;-62
2022/12/24 00:21:06;;;;;;;16.65;10.10;;;;;;;;;;5087261;28;20498;-62
2022/12/24 00:23:32;;;;;;;15.40;10.77;;;;;;;;;;5087538;28;20050;-63
2022/12/24 00:25:58;;;;;;;16.83;11.43;;;;;;;;;;5081117;28;20144;-61
2022/12/24 00:28:23;;;;;;;19.85;12.30;;;7.80;99.90;;;;;;5087638;28;20486;-62
2022/12/24 00:30:49;;;;;;;17.58;11.60;;;;;;;;;;5087556;28;20044;-63
2022/12/24 00:33:15;;;;;;;19.50;11.73;;;7.80;99.90;;;;;;5087382;28;20051;-61
2022/12/24 00:35:41;;;;;;;20.77;11.77;;;;;;;;;;5087636;28;20047;-61
2022/12/24 00:38:08;;;;;;;18.90;11.68;;;;;;;;;;5068958;28;20050;-63
2022/12/24 00:40:34;;;;;;;21.75;12.73;;;;;;;;;;5087254;28;20088;-63
2022/12/24 00:43:00;;;;;;;14.77;10.13;;;;;;;;;;5086853;28;20494;-62
2022/12/24 00:45:26;;;;;;;16.42;10.68;;;;;;;;;;5066970;28;20044;-62
2022/12/24 00:47:52;;;;;;;16.73;9.95;;;;;;;;;;5078107;28;20122;-62
2022/12/24 00:50:18;;;;;;;17.38;10.15;;;;;;;;;;5068059;28;20043;-62
2022/12/24 00:52:44;;;;;;;18.02;11.77;;;7.70;99.90;;;;;;5086779;28;20039;-63
2022/12/24 00:55:10;;;;;;;17.50;11.18;;;;;;;;;;5060713;28;20426;-61
2022/12/24 00:57:36;;;;;;;19.45;10.77;;;;;;;;;;5064758;28;20048;-61
2022/12/24 01:00:02;;;;;;;16.67;10.52;;;;;;;;;;5086826;28;20566;-62
2022/12/24 01:02:28;;;;;;;20.35;11.90;;;;;;;;;;5068395;28;20055;-61
2022/12/24 01:05:09;;;;;;;16.63;10.68;;;;;;;;;;5086141;28;20429;-62
2022/12/24 01:07:41;;;;;;;20.00;11.73;;;7.80;99.90;;;;;;5084274;28;20047;-62
2022/12/24 01:10:07;;;;;;;17.65;11.57;;;;;;;;;;5086677;28;20093;-62
2022/12/24 01:12:33;;;;;;;25.10;13.20;;;;;;;;;;5086494;28;20148;-62
2022/12/24 01:14:59;;;;;;;20.52;13.13;;;;;;;;;;5086517;28;20493;-62
2022/12/24 01:17:25;;;;;;;20.05;13.00;;;;;;;;;;5085841;28;20043;-62
2022/12/24 01:19:51;;;;;;;25.10;14.55;;;;;;;;;;5086303;28;20482;-63
2022/12/24 01:22:17;;;;;;;25.60;15.07;;;;;;;;;;5067442;28;20055;-62
2022/12/24 01:24:43;;;;;;;27.83;15.77;;;;;;;;;;5085123;28;20044;-62
2022/12/24 01:27:09;;;;;;;30.67;15.40;;;;;;;;;;5085873;28;20553;-62
2022/12/24 01:29:35;;;;;;;31.90;16.48;;;7.90;99.90;;;;;;5085644;28;20123;-62
2022/12/24 01:32:01;;;;;;;29.98;15.43;;;;;;;;;;5085207;28;20070;-62
2022/12/24 01:34:27;;;;;;;31.17;15.40;;;;;;;;;;5086031;28;20395;-59
2022/12/24 01:36:53;;;;;;;34.90;16.40;;;;;;;;;;5085990;28;20420;-60
2022/12/24 01:39:19;;;;;;;29.33;15.95;;;;;;;;;;5085808;28;20052;-62
2022/12/24 01:44:32;;;;;;;29.77;15.10;;;8.30;99.90;;;;;;5078021;28;20506;-61
2022/12/24 01:47:12;;;;;;;28.73;15.18;;;;;;;;;;5067638;28;20282;-62
2022/12/24 01:49:43;;;;;;;28.80;14.45;;;;;;;;;;5085822;28;20537;-61
2022/12/24 01:52:12;;;;;;;34.38;15.68;;;;;;;;;;5086222;28;20231;-62
2022/12/24 01:54:46;;;;;;;24.40;13.68;;;8.40;99.90;;;;;;5086159;28;20257;-60
2022/12/24 01:57:21;;;;;;;22.95;13.18;;;;;;;;;;5072234;28;20100;-63
2022/12/24 01:59:49;;;;;;;26.73;13.60;;;;;;;;;;5064274;28;20036;-61
2022/12/24 02:02:15;;;;;;;28.10;14.07;;;;;;;;;;5083677;28;20036;-62
2022/12/24 02:05:00;;;;;;;25.85;12.20;;;;;;;;;;5067841;28;20421;-61
2022/12/24 02:07:26;;;;;;;24.50;12.20;;;;;;;;;;5068377;28;20048;-64
2022/12/24 02:10:00;;;;;;;25.83;12.48;;;;;;;;;;5086711;28;20042;-62
2022/12/24 02:12:28;;;;;;;21.15;11.88;;;;;;;;;;5086661;28;20048;-62
2022/12/24 02:14:54;;;;;;;22.27;12.73;;;;;;;;;;5086370;28;20075;-63
2022/12/24 02:17:35;;;;;;;22.83;11.98;;;8.50;99.90;;;;;;5086366;28;20044;-62
2022/12/24 02:20:10;;;;;;;24.80;11.45;;;;;;;;;;5073038;28;20818;-63
2022/12/24 02:22:55;;;;;;;23.45;10.20;;;;;;;;;;5068461;28;20054;-62
2022/12/24 02:25:40;;;;;;;22.20;10.20;;;;;;;;;;5074647;28;20059;-62
2022/12/24 02:28:13;;;;;;;20.98;9.70;;;8.80;99.90;;;;;;5068387;28;20036;-62
2022/12/24 02:30:45;;;;;;;21.23;8.77;;;;;;;;;;5089091;28;20063;-62
2022/12/24 02:33:15;;;;;;;18.20;8.23;;;;;;;;;;5090223;28;20123;-62
2022/12/24 02:35:40;;;;;;;18.60;7.32;;;;;;;;;;5090071;28;20044;-62
2022/12/24 02:38:19;;;;;;;20.48;6.85;;;;;;;;;;5089814;28;20040;-62
2022/12/24 02:40:47;;;;;;;33.75;7.15;;;;;;;;;;5089836;28;20040;-61
2022/12/24 02:43:16;;;;;;;31.63;7.97;;;;;;;;;;5071574;28;20047;-60
2022/12/24 02:45:43;;;;;;;21.30;7.35;;;;;;;;;;5089717;28;20536;-62
2022/12/24 02:48:11;;;;;;;30.55;7.18;;;8.90;99.90;;;;;;5071549;28;20142;-63
2022/12/24 02:50:37;;;;;;;27.50;6.45;;;;;;;;;;5089736;28;20119;-62
2022/12/24 02:53:03;;;;;;;28.52;6.75;;;;;;;;;;5089595;28;20139;-62
2022/12/24 02:55:32;;;;;;;29.20;5.55;;;;;;;;;;5089223;28;20048;-62
2022/12/24 02:58:07;;;;;;;34.97;5.82;;;;;;;;;;5079865;28;20055;-62
2022/12/24 03:01:14;;;;;;;29.67;6.20;;;;;;;;;;5054639;28;20043;-62
2022/12/24 03:04:01;;;;;;;39.05;5.80;;;;;;;;;;5072124;28;20059;-61
2022/12/24 03:06:43;;;;;;;25.75;6.65;;;;;;;;;;5058068;28;20075;-61
2022/12/24 03:09:24;;;;;;;34.47;5.20;;;;;;;;;;5089285;28;20128;-60
2022/12/24 03:12:05;;;;;;;43.45;6.18;;;;;;;;;;5089340;28;20054;-61
2022/12/24 03:14:33;;;;;;;30.67;4.07;;;9.10;99.90;;;;;;5070867;28;20106;-61
2022/12/24 03:17:00;;;;;;;28.30;4.88;;;;;;;;;;5089232;28;20534;-61
2022/12/24 03:19:26;;;;;;;33.47;5.80;;;;;;;;;;5088955;28;20044;-62
2022/12/24 03:21:56;;;;;;;30.85;4.90;;;;;;;;;;5089203;28;20040;-62
2022/12/24 03:24:21;;;;;;;33.20;5.63;;;;;;;;;;5088886;28;20093;-61
2022/12/24 03:26:48;;;;;;;32.78;6.22;;;;;;;;;;5088985;28;20549;-61
2022/12/24 03:29:14;;;;;;;29.92;5.43;;;;;;;;;;5071078;28;20040;-61
2022/12/24 03:31:48;;;;;;;38.88;5.43;;;9.00;99.90;;;;;;5070491;28;20117;-62
2022/12/24 03:34:15;;;;;;;34.35;6.68;;;;;;;;;;5089013;28;20048;-62
2022/12/24 03:36:41;;;;;;;34.28;5.28;;;;;;;;;;5088636;28;20379;-61
2022/12/24 03:39:08;;;;;;;32.28;5.43;;;;;;;;;;5070525;28;20593;-61
2022/12/24 03:41:34;;;;;;;28.05;5.10;;;;;;;;;;5070249;28;20051;-62
2022/12/24 03:44:00;;;;;;;22.05;4.03;;;;;;;;;;5088337;28;20563;-61
2022/12/24 03:46:26;;;;;;;38.25;4.68;;;;;;;;;;5070206;28;20048;-61
2022/12/24 03:48:52;;;;;;;28.10;5.03;;;;;;;;;;5056015;28;20091;-61
2022/12/24 03:51:19;;;;;;;25.80;5.45;;;;;;;;;;5088406;28;20040;-61
2022/12/24 03:53:45;;;;;;;31.63;4.97;;;;;;;;;;5088188;28;20117;-62
2022/12/24 03:56:11;;;;;;;34.17;4.80;;;;;;;;;;5068860;28;20040;-62
2022/12/24 03:58:37;;;;;;;28.65;4.68;;;;;;;;;;5070022;28;20660;-62
2022/12/24 04:01:02;;;;;;;28.65;4.82;;;9.00;99.90;;;;;;5088552;28;20050;-62
2022/12/24 04:03:28;;;;;;;32.05;5.10;;;9.00;99.90;;;;;;5088194;28;20040;-63
2022/12/24 04:06:05;;;;;;;27.05;6.40;;;;;;;;;;5088146;28;20048;-62
2022/12/24 04:08:31;;;;;;;27.20;5.65;;;9.30;99.90;;;;;;5087983;28;20036;-62
2022/12/24 04:10:57;;;;;;;40.55;5.85;;;;;;;;;;5088728;28;20097;-62
2022/12/24 04:13:23;;;;;;;30.25;5.57;;;;;;;;;;5088164;28;20048;-62
2022/12/24 04:16:18;;;;;;;35.88;6.00;;;;;;;;;;5088244;28;20050;-62
2022/12/24 04:18:44;;;;;;;36.83;6.13;;;8.80;99.90;;;;;;5057694;28;20048;-63
2022/12/24 04:21:10;;;;;;;38.97;5.47;;;;;;;;;;5088216;28;20494;-62
2022/12/24 04:23:37;;;;;;;40.67;6.13;;;;;;;;;;5088024;28;20040;-63
2022/12/24 04:26:04;;;;;;;37.40;6.70;;;9.00;99.90;;;;;;5088255;28;20055;-62
2022/12/24 04:28:31;;;;;;;35.30;5.65;;;;;;;;;;5087897;28;20185;-63
2022/12/24 04:30:57;;;;;;;30.88;6.70;;;;;;;;;;5069461;28;20055;-63
2022/12/24 04:33:23;;;;;;;36.17;10.20;;;8.80;99.90;;;;;;5087750;28;20047;-63
2022/12/24 04:35:48;;;;;;;44.22;7.57;;;8.70;99.90;;;;;;5087770;28;20600;-63
2022/12/24 04:38:14;;;;;;;42.38;6.35;;;;;;;;;;5088184;28;20040;-63
2022/12/24 04:40:40;;;;;;;35.88;5.93;;;;;;;;;;5087922;28;20551;-63
2022/12/24 04:43:06;;;;;;;53.15;7.05;;;;;;;;;;5087960;28;20120;-61
2022/12/24 04:45:32;;;;;;;36.53;5.18;;;;;;;;;;5087755;28;20054;-62
2022/12/24 04:47:58;;;;;;;41.17;6.07;;;;;;;;;;5052907;28;20250;-62
2022/12/24 04:50:24;;;;;;;44.40;6.32;;;8.60;99.90;;;;;;5087482;28;20059;-63
2022/12/24 04:52:50;;;;;;;30.73;6.28;;;;;;;;;;5068970;28;20055;-63
2022/12/24 04:55:16;;;;;;;35.08;6.22;;;;;;;;;;5087588;28;20118;-63
2022/12/24 04:57:42;;;;;;;43.28;6.07;;;;;;;;;;5073087;28;20489;-63
2022/12/24 05:00:08;;;;;;;36.28;7.47;;;8.50;99.90;;;;;;5087347;28;20075;-62
2022/12/24 05:02:34;;;;;;;48.15;6.47;;;;;;;;;;5069161;28;20560;-62
2022/12/24 05:05:00;;;;;;;38.33;6.97;;;;;;;;;;5087032;28;20050;-63
2022/12/24 05:07:26;;;;;;;41.95;7.18;;;;;;;;;;5086989;28;20066;-62
2022/12/24 05:09:52;;;;;;;41.33;7.72;;;;;;;;;;5087063;28;20123;-62
2022/12/24 05:12:18;;;;;;;34.45;5.80;;;;;;;;;;5087154;28;20043;-61
2022/12/24 05:14:44;;;;;;;41.63;6.55;;;;;;;;;;5086857;28;20511;-61
2022/12/24 05:17:10;;;;;;;38.58;6.72;;;;;;;;;;5069005;28;20128;-61
2022/12/24 05:19:36;;;;;;;41.22;6.82;;;;;;;;;;5086688;28;20493;-62
2022/12/24 05:27:31;;;;;;;46.75;7.03;;;;;;;;;;5068990;28;20048;-62
2022/12/24 05:29:57;;;;;;;40.03;5.85;;;;;;;;;;5086906;28;20450;-61
2022/12/24 05:32:23;;;;;;;42.17;6.55;;;;;;;;;;5086773;28;20047;-62
2022/12/24 05:34:49;;;;;;;34.40;7.05;;;;;;;;;;5086806;28;20520;-63
2022/12/24 05:37:15;;;;;;;34.03;6.43;;;;;;;;;;5086874;28;20040;-63
2022/12/24 05:39:41;;;;;;;37.33;6.80;;;;;;;;;;5086840;28;20071;-63
2022/12/24 05:42:07;;;;;;;32.85;5.72;;;;;;;;;;5086925;28;20036;-62
2022/12/24 05:44:33;;;;;;;30.15;5.75;;;;;;;;;;5086858;28;20803;-61
2022/12/24 05:46:59;;;;;;;31.42;5.30;;;8.80;99.90;;;;;;5086894;28;20076;-63
2022/12/24 05:49:25;;;;;;;41.83;5.68;;;;;;;;;;5087056;28;20039;-62
2022/12/24 05:51:50;;;;;;;48.25;7.65;;;8.80;99.90;;;;;;5086907;28;20115;-63
2022/12/24 05:54:16;;;;;;;35.88;6.15;;;;;;;;;;5086593;28;20040;-63
2022/12/24 05:56:42;;;;;;;35.15;6.57;;;;;;;;;;5068340;28;20093;-63
2022/12/24 05:59:08;;;;;;;29.25;5.85;;;;;;;;;;5086753;28;20044;-62
2022/12/24 06:01:34;;;;;;;35.33;6.60;;;8.80;99.90;;;;;;5086610;28;20047;-63
2022/12/24 06:04:00;;;;;;;32.97;5.57;;;;;;;;;;5086567;28;20109;-63
2022/12/24 06:06:27;;;;;;;43.90;6.80;;;;;;;;;;5090644;28;20127;-62
2022/12/24 06:08:54;;;;;;;37.53;6.70;;;;;;;;;;5072439;28;20055;-61
2022/12/24 06:11:23;;;;;;;43.75;7.00;;;;;;;;;;5072135;28;20078;-61
2022/12/24 06:13:49;;;;;;;41.55;6.85;;;;;;;;;;5090331;28;20413;-61
2022/12/24 06:16:17;;;;;;;40.63;7.40;;;9.10;99.90;;;;;;5090571;28;20079;-61
2022/12/24 06:18:43;;;;;;;45.00;6.45;;;;;;;;;;5090640;28;20083;-62
2022/12/24 06:21:10;;;;;;;34.75;6.53;;;;;;;;;;5084631;28;20097;-62
2022/12/24 06:23:37;;;;;;;48.53;7.30;;;;;;;;;;5090458;28;20050;-62
2022/12/24 06:26:04;;;;;;;43.60;7.10;;;;;;;;;;5090041;28;20147;-62
2022/12/24 06:28:31;;;;;;;43.75;6.32;;;;;;;;;;5089988;28;20507;-63
2022/12/24 06:30:57;;;;;;;40.83;7.28;;;;;;;;;;5068346;28;20463;-63
2022/12/24 06:33:23;;;;;;;34.58;6.97;;;;;;;;;;5069711;28;20048;-62
2022/12/24 06:35:49;;;;;;;44.45;6.47;;;;;;;;;;5069859;28;20118;-62
2022/12/24 06:38:15;;;;;;;50.22;6.78;;;8.70;99.90;;;;;;5070076;28;20158;-63
2022/12/24 06:40:42;;;;;;;39.95;6.35;;;;;;;;;;5069922;28;20139;-63
2022/12/24 06:43:08;;;;;;;42.00;6.15;;;;;;;;;;5069674;28;20079;-62
2022/12/24 06:45:34;;;;;;;42.65;6.45;;;;;;;;;;5069889;28;20044;-62
2022/12/24 06:48:00;;;;;;;35.20;5.53;;;8.70;99.90;;;;;;5069706;28;20043;-62
2022/12/24 06:50:26;;;;;;;33.83;6.15;;;8.60;99.90;;;;;;5069943;28;20082;-63
2022/12/24 06:52:52;;;;;;;47.50;5.90;;;;;;;;;;5080830;28;20105;-61
2022/12/24 06:55:18;;;;;;;38.50;8.27;;;8.70;99.90;;;;;;5086956;28;20044;-62
2022/12/24 06:57:44;;;;;;;41.13;6.50;;;;;;;;;;5085708;28;20047;-62
2022/12/24 07:00:11;;;;;;;31.92;6.28;;;8.80;99.90;;;;;;5086450;28;20051;-63
2022/12/24 07:02:41;;;;;;;40.78;6.45;;;8.70;99.90;;;;;;5086195;28;20121;-63
2022/12/24 07:05:09;;;;;;;32.63;5.18;;;;;;;;;;5083959;28;20055;-62
2022/12/24 07:07:36;;;;;;;49.17;6.72;;;8.80;99.90;;;;;;5084321;28;20047;-62
2022/12/24 07:10:03;;;;;;;41.47;6.32;;;;;;;;;;5087258;28;20041;-63
2022/12/24 07:12:28;;;;;;;36.00;6.15;;;8.70;99.90;;;;;;5086990;28;20389;-61
2022/12/24 07:14:54;;;;;;;43.58;5.65;;;;;;;;;;5087433;28;20038;-62
2022/12/24 07:17:20;;;;;;;42.88;7.05;;;;;;;;;;5088390;28;20047;-62
2022/12/24 07:19:46;;;;;;;32.50;6.72;;;;;;;;;;5087622;28;20120;-62
2022/12/24 07:22:12;;;;;;;48.50;6.65;;;8.70;99.90;;;;;;5084515;28;20051;-62
2022/12/24 07:24:38;;;;;;;33.47;5.10;;;;;;;;;;5087938;28;20044;-63
2022/12/24 07:27:04;;;;;;;37.78;5.50;;;;;;;;;;5085908;28;20085;-63
2022/12/24 07:29:30;;;;;;;39.05;6.15;;;;;;;;;;5084923;28;20044;-63
2022/12/24 07:31:56;;;;;;;47.63;6.40;;;;;;;;;;5099610;28;20055;-61
2022/12/24 07:34:22;;;;;;;38.22;6.10;;;;;;;;;;5090334;28;20424;-61
2022/12/24 07:36:48;;;;;;;36.70;7.13;;;;;;;;;;5087211;28;20044;-63
2022/12/24 07:39:13;;;;;;;33.28;6.15;;;8.50;99.90;;;;;;5088623;28;20036;-62
2022/12/24 07:41:39;;;;;;;34.67;5.25;;;;;;;;;;5075659;28;20051;-63
2022/12/24 07:44:05;;;;;;;41.75;6.95;;;;;;;;;;5082600;28;20040;-61
2022/12/24 07:46:31;;;;;;;31.88;5.68;;;8.80;99.90;;;;;;5090143;28;20093;-62
2022/12/24 07:48:56;;;;;;;37.08;6.60;;;8.70;99.90;;;;;;5100220;28;20038;-62
2022/12/24 07:51:22;;;;;;;34.63;6.35;;;8.50;99.90;;;;;;5089273;28;20040;-63
2022/12/24 07:53:48;;;;;;;42.55;7.28;;;;;;;;;;5084434;28;20191;-62
2022/12/24 07:56:14;;;;;;;36.30;5.30;;;8.60;99.90;;;;;;5100726;28;20036;-63
2022/12/24 07:58:41;;;;;;;31.83;5.55;;;;;;;;;;5102897;28;20036;-63
2022/12/24 08:01:06;;;;;;;42.28;7.93;;;8.70;99.90;;;;;;5099070;28;20512;-63
2022/12/24 08:03:32;;;;;;;36.03;5.28;;;8.60;99.90;;;;;;5099201;28;20110;-63
2022/12/24 08:05:57;;;;;;;46.47;5.95;;;8.50;99.90;;;;;;5102991;28;20117;-64
2022/12/24 08:08:24;;;;;;;38.45;5.75;;;;;;;;;;5100461;28;20119;-63
2022/12/24 08:10:50;;;;;;;34.80;6.80;;;;;;;;;;5103830;28;20043;-63
2022/12/24 08:13:16;;;;;;;37.25;5.55;;;;;;;;;;5103452;28;20043;-60
2022/12/24 08:15:42;;;;;;;37.85;5.50;;;;;;;;;;5087496;28;20043;-63
2022/12/24 08:18:08;;;;;;;34.70;5.18;;;8.70;99.90;;;;;;5094787;28;20397;-64
2022/12/24 08:20:36;;;;;;;39.85;7.25;;;;;;;;;;5082085;28;20082;-62
2022/12/24 08:23:02;;;;;;;39.70;5.55;;;8.80;99.90;;;;;;5082553;28;20045;-64
2022/12/24 08:25:27;;;;;;;39.03;5.30;;;8.80;99.90;;;;;;5093622;28;20482;-63
2022/12/24 08:27:53;;;;;;;46.25;7.07;;;8.90;99.90;;;;;;5102494;28;20718;-63
2022/12/24 08:30:19;;;;;;;39.05;6.47;;;;;;;;;;5087654;28;20119;-63
2022/12/24 08:32:44;;;;;;;39.20;7.07;;;8.80;99.90;;;;;;5100629;28;20069;-64
2022/12/24 08:35:10;;;;;;;36.42;5.93;;;8.80;99.90;;;;;;5102247;28;20035;-61
2022/12/24 08:37:35;;;;;;;43.88;6.47;;;8.90;99.90;;;;;;5106384;28;20043;-60
2022/12/24 08:40:02;;;;;;;48.83;7.30;;;;;;;;;;5102108;28;20074;-62
2022/12/24 08:42:27;;;;;;;35.40;6.05;;;8.90;99.90;;;;;;5104083;28;20126;-61
2022/12/24 08:44:53;;;;;;;47.10;6.25;;;8.90;99.90;;;;;;5103265;28;20118;-61
2022/12/24 08:47:18;;;;;;;33.63;5.78;;;9.00;99.90;;;;;;5086778;28;20040;-59
2022/12/24 08:49:44;;;;;;;41.10;5.78;;;;;;;;;;5092758;28;20051;-59
2022/12/24 08:52:10;;;;;;;40.72;6.95;;;9.20;99.90;;;;;;5055700;28;20036;-61
2022/12/24 08:54:36;;;;;;;46.38;6.85;;;;;;;;;;5088048;28;20043;-62
2022/12/24 08:57:02;;;;;;;47.53;6.80;;;;;;;;;;5101085;28;20043;-62
2022/12/24 08:59:28;;;;;;;38.72;7.93;;;;;;;;;;5082294;28;20749;-62
2022/12/24 09:01:53;;;;;;;37.33;8.15;;;9.40;99.90;;;;;;5087610;28;20040;-62
2022/12/24 09:04:19;;;;;;;41.90;7.03;;;9.60;99.90;;;;;;5073334;28;20043;-61
2022/12/24 09:06:45;;;;;;;44.83;6.85;;;;;;;;;;5087721;28;20512;-62
2022/12/24 09:09:10;;;;;;;32.50;6.28;;;9.40;99.90;;;;;;5087247;28;20393;-62
2022/12/24 09:11:36;;;;;;;34.92;6.80;;;;;;;;;;5096157;28;20072;-61
2022/12/24 09:14:02;;;;;;;37.75;6.00;;;;;;;;;;5089159;28;20135;-63
2022/12/24 09:16:28;;;;;;;33.90;6.53;;;9.30;99.90;;;;;;5082758;28;20580;-62
2022/12/24 09:18:54;;;;;;;35.15;5.78;;;;;;;;;;5063009;28;20123;-64
2022/12/24 09:21:19;;;;;;;29.65;5.45;;;9.50;99.90;;;;;;5086900;28;20109;-64
2022/12/24 09:23:47;;;;;;;42.75;6.10;;;;;;;;;;5087166;28;20079;-64
2022/12/24 09:26:15;;;;;;;33.03;5.78;;;9.30;99.90;;;;;;5080615;28;20454;-65
2022/12/24 09:28:41;;;;;;;30.70;4.43;;;9.30;99.90;;;;;;5085851;28;20392;-64
2022/12/24 09:31:08;;;;;;;36.95;5.38;;;9.20;99.90;;;;;;5102429;28;20044;-64
2022/12/24 09:33:36;;;;;;;27.33;4.57;;;9.30;99.90;;;;;;5098749;28;20046;-64
2022/12/24 09:36:02;;;;;;;31.35;5.35;;;9.30;99.90;;;;;;5102032;28;20401;-63
2022/12/24 09:38:29;;;;;;;28.13;4.85;;;;;;;;;;5088756;28;20044;-65
2022/12/24 09:40:55;;;;;;;19.67;4.07;;;;;;;;;;5108424;28;20062;-63
2022/12/24 09:43:23;;;;;;;24.30;4.45;;;9.20;99.90;;;;;;5090351;28;20048;-64
2022/12/24 09:45:53;;;;;;;27.85;4.63;;;;;;;;;;5094829;28;20040;-64
2022/12/24 09:48:23;;;;;;;22.80;4.75;;;;;;;;;;5090868;28;20072;-65
2022/12/24 09:50:51;;;;;;;25.23;5.05;;;;;;;;;;5090756;28;20039;-65
2022/12/24 09:53:19;;;;;;;35.80;5.35;;;;;;;;;;5090119;28;20474;-64
2022/12/24 09:55:58;;;;;;;28.30;5.82;;;9.30;99.90;;;;;;5093566;28;20139;-64
2022/12/24 09:58:40;;;;;;;36.25;5.30;;;9.40;99.90;;;;;;5090999;28;20048;-65
2022/12/24 10:01:06;;;;;;;27.92;5.90;;;;;;;;;;5065281;28;20409;-64
2022/12/24 10:03:32;;;;;;;36.45;7.22;;;;;;;;;;5090739;28;20040;-65
2022/12/24 10:06:05;;;;;;;33.45;6.63;;;;;;;;;;5090327;28;20047;-64
2022/12/24 10:08:44;;;;;;;27.85;5.05;;;9.30;99.90;;;;;;5101654;28;20556;-65
2022/12/24 10:11:19;;;;;;;36.55;5.82;;;;;;;;;;5085502;28;20530;-65
2022/12/24 10:13:59;;;;;;;39.85;6.13;;;;;;;;;;5089273;28;20101;-65
2022/12/24 10:16:28;;;;;;;35.17;5.68;;;;;;;;;;5101400;28;20044;-64
2022/12/24 10:19:05;;;;;;;28.50;5.00;;;;;;;;;;5087895;28;20465;-66
2022/12/24 10:21:33;;;;;;;26.50;4.97;;;;;;;;;;5100251;28;20051;-64
2022/12/24 10:24:10;;;;;;;29.17;5.85;;;;;;;;;;5082420;28;20176;-64
2022/12/24 10:26:49;;;;;;;29.60;5.65;;;9.50;99.90;;;;;;5085259;28;20599;-64
2022/12/24 10:29:19;;;;;;;35.00;7.32;;;9.50;99.90;;;;;;5088443;28;20375;-63
2022/12/24 10:31:52;;;;;;;32.13;6.65;;;;;;;;;;5092511;28;20604;-65
2022/12/24 10:34:27;;;;;;;38.00;5.72;;;9.40;99.90;;;;;;5068770;28;20044;-66
2022/12/24 10:36:52;;;;;;;37.20;5.80;;;9.60;99.90;;;;;;5092138;28;20050;-63
2022/12/24 10:39:20;;;;;;;41.60;6.82;;;;;;;;;;5104586;28;20036;-62
2022/12/24 10:41:50;;;;;;;36.88;5.57;;;;;;;;;;5107428;28;20036;-62
2022/12/24 10:44:20;;;;;;;38.85;5.68;;;9.60;99.90;;;;;;5099643;28;20051;-62
2022/12/24 10:46:46;;;;;;;30.42;5.82;;;;;;;;;;5090209;28;20378;-62
2022/12/24 10:49:17;;;;;;;31.73;6.43;;;;;;;;;;5107147;28;20036;-62
2022/12/24 10:51:47;;;;;;;28.85;5.53;;;;;;;;;;5107053;28;20036;-60
2022/12/24 10:54:15;;;;;;;39.42;6.15;;;;;;;;;;5101025;28;20032;-64
2022/12/24 10:56:42;;;;;;;36.03;5.97;;;;;;;;;;5090343;28;20095;-64
2022/12/24 10:59:22;;;;;;;26.45;5.57;;;;;;;;;;5090728;28;20039;-64
2022/12/24 11:01:49;;;;;;;34.90;6.18;;;9.60;99.90;;;;;;5106882;28;20446;-63
2022/12/24 11:04:23;;;;;;;25.88;5.45;;;;;;;;;;5090446;28;20051;-63
2022/12/24 11:07:02;;;;;;;33.53;5.90;;;;;;;;;;5099599;28;20123;-64
2022/12/24 11:09:30;;;;;;;27.75;5.82;;;;;;;;;;5105271;28;20061;-64
2022/12/24 11:11:56;;;;;;;31.00;4.80;;;;;;;;;;5090439;28;20039;-63
2022/12/24 11:14:23;;;;;;;29.95;5.38;;;;;;;;;;5090406;28;20039;-63
2022/12/24 11:16:56;;;;;;;30.38;4.95;;;;;;;;;;5100739;28;20094;-63
2022/12/24 11:19:26;;;;;;;33.45;5.13;;;;;;;;;;5093228;28;20083;-64
2022/12/24 11:21:58;;;;;;;37.05;5.28;;;;;;;;;;5089352;28;20044;-63
2022/12/24 11:24:26;;;;;;;42.42;5.88;;;;;;;;;;5082201;28;20513;-64
2022/12/24 11:26:52;;;;;;;39.08;6.25;;;9.80;99.90;;;;;;5089328;28;20032;-63
2022/12/24 11:29:25;;;;;;;27.55;5.15;;;;;;;;;;5091727;28;20482;-64
2022/12/24 11:32:08;;;;;;;42.72;5.30;;;9.60;99.90;;;;;;5092956;28;20174;-63
2022/12/24 11:34:34;;;;;;;38.30;5.22;;;;;;;;;;5087008;28;20775;-64
2022/12/24 11:37:14;;;;;;;42.47;6.63;;;;;;;;;;5089022;28;20036;-63
2022/12/24 11:39:41;;;;;;;36.33;5.45;;;;;;;;;;5086765;28;20157;-63
2022/12/24 11:42:31;;;;;;;32.42;5.10;;;9.70;99.90;;;;;;5089563;28;20493;-64
2022/12/24 11:44:58;;;;;;;33.85;7.05;;;9.80;99.90;;;;;;5104811;28;20046;-63
2022/12/24 11:47:34;;;;;;;30.25;4.97;;;;;;;;;;5089950;28;20059;-64
2022/12/24 11:50:19;;;;;;;32.72;5.28;;;;;;;;;;5088338;28;20039;-64
2022/12/24 11:53:05;;;;;;;36.20;5.55;;;;;;;;;;5106375;28;20084;-64
2022/12/24 11:55:40;;;;;;;30.35;5.10;;;;;;;;;;5088876;28;20053;-63
2022/12/24 11:58:22;;;;;;;41.47;5.70;;;9.70;99.90;;;;;;5087842;28;21231;-63
2022/12/24 12:00:48;;;;;;;27.30;4.63;;;;;;;;;;5106435;28;20085;-64
2022/12/24 12:03:35;;;;;;;29.90;5.18;;;;;;;;;;5105425;28;20063;-65
2022/12/24 12:06:06;;;;;;;30.20;5.13;;;9.70;99.90;;;;;;5083732;28;20052;-65
2022/12/24 12:08:34;;;;;;;18.08;4.70;;;9.80;99.90;;;;;;5106086;28;20080;-64
2022/12/24 12:11:01;;;;;;;29.38;6.38;;;;;;;;;;5105301;28;20035;-64
2022/12/24 12:13:32;;;;;;;26.00;4.78;;;9.70;99.90;;;;;;5107227;28;20054;-64
2022/12/24 12:16:20;;;;;;;27.92;5.63;;;9.80;99.90;;;;;;5086933;28;20055;-64
2022/12/24 12:18:49;;;;;;;27.10;4.88;;;;;;;;;;5103221;28;20050;-64
2022/12/24 12:21:18;;;;;;;27.90;4.70;;;9.70;99.90;;;;;;5105604;28;20043;-64
2022/12/24 12:23:57;;;;;;;24.90;4.57;;;9.60;99.90;;;;;;5099641;28;20524;-63
2022/12/24 12:26:27;;;;;;;40.33;5.65;;;9.80;99.90;;;;;;5096254;28;20089;-64
2022/12/24 12:28:56;;;;;;;31.20;4.97;;;;;;;;;;5086986;28;20119;-64
2022/12/24 12:31:42;;;;;;;32.58;5.47;;;;;;;;;;5074913;28;20139;-64
2022/12/24 12:34:12;;;;;;;;;;;9.60;99.90;;;;;;5087721;28;20085;-65
2022/12/24 12:36:46;;;;;;;24.95;4.15;;;;;;;;;;5076468;28;19955;-62
2022/12/24 12:39:12;;;;;;;22.70;3.70;;;;;;;;;;5088803;28;20039;-61
2022/12/24 12:41:38;;;;;;;25.38;4.43;;;;;;;;;;5104685;28;20031;-63
2022/12/24 12:44:04;;;;;;;27.33;4.40;;;;;;;;;;5106052;28;20520;-62
2022/12/24 12:46:50;;;;;;;29.90;5.50;;;;;;;;;;5105764;28;20453;-63
2022/12/24 12:49:27;;;;;;;30.83;5.25;;;;;;;;;;5089006;28;20043;-62
2022/12/24 12:52:08;;;;;;;29.88;5.07;;;10.00;99.90;;;;;;5102127;28;20417;-62
2022/12/24 12:54:33;;;;;;;24.33;4.32;;;9.90;99.90;;;;;;5086978;28;20031;-62
2022/12/24 12:57:03;;;;;;;26.20;4.55;;;;;;;;;;5101867;28;20043;-62
2022/12/24 12:59:36;;;;;;;25.50;5.40;;;10.00;99.90;;;;;;5102691;28;20458;-62
2022/12/24 13:02:21;;;;;;;25.10;4.60;;;;;;;;;;5087771;28;20379;-62
2022/12/24 13:05:18;;;;;;;38.50;5.22;;;10.20;99.90;;;;;;5083449;28;20139;-63
2022/12/24 13:07:53;;;;;;;26.00;5.43;;;;;;;;;;5102779;28;20107;-63
2022/12/24 13:10:21;;;;;;;28.40;4.78;;;10.10;99.90;;;;;;5088372;28;20046;-63
2022/12/24 13:13:06;;;;;;;20.60;4.30;;;;;;;;;;5104986;28;20505;-63
2022/12/24 13:16:01;;;;;;;25.85;4.60;;;;;;;;;;5105866;28;20043;-63
2022/12/24 13:18:27;;;;;;;29.48;5.28;;;;;;;;;;5103302;28;20570;-63
2022/12/24 13:20:53;;;;;;;30.77;5.50;;;;;;;;;;5087112;28;20040;-64
2022/12/24 13:23:23;;;;;;;27.02;5.10;;;;;;;;;;5102792;28;20047;-63
2022/12/24 13:25:50;;;;;;;26.90;4.88;;;;;;;;;;5104892;28;20160;-63
2022/12/24 13:28:21;;;;;;;21.60;5.03;;;10.20;99.90;;;;;;5103889;28;20036;-63
2022/12/24 13:30:48;;;;;;;25.50;5.28;;;10.00;99.90;;;;;;5087598;28;20679;-61
2022/12/24 13:33:33;;;;;;;25.92;4.95;;;;;;;;;;5102910;28;20051;-63
2022/12/24 13:36:19;;;;;;;20.52;4.65;;;;;;;;;;5102574;28;20081;-63
2022/12/24 13:38:48;;;;;;;15.52;4.03;;;10.10;99.90;;;;;;5087911;28;20086;-63
2022/12/24 13:41:37;;;;;;;29.15;5.10;;;;;;;;;;5104373;28;20493;-63
2022/12/24 13:44:05;;;;;;;20.92;4.10;;;9.70;99.90;;;;;;5099750;28;20074;-63
2022/12/24 13:46:50;;;;;;;28.73;4.63;;;;;;;;;;5102315;28;20071;-63
2022/12/24 13:49:36;;;;;;;21.95;4.22;;;9.70;99.90;;;;;;5105597;28;20043;-63
2022/12/24 13:52:11;;;;;;;34.17;5.72;;;;;;;;;;5106118;28;20036;-62
2022/12/24 13:54:38;;;;;;;22.25;4.13;;;;;;;;;;5102790;28;20046;-64
2022/12/24 13:57:22;;;;;;;25.33;5.25;;;;;;;;;;5086856;28;20054;-61
2022/12/24 13:59:56;;;;;;;21.90;4.15;;;;;;;;;;5104821;28;20129;-62
2022/12/24 14:02:22;;;;;;;22.48;4.57;;;;;;;;;;5103783;28;20036;-61
2022/12/24 14:04:49;;;;;;;22.38;3.10;;;;;;;;;;5103824;28;20061;-63
2022/12/24 14:07:18;;;;;;;24.50;5.20;;;;;;;;;;5105220;28;20032;-62
2022/12/24 14:09:49;;;;;;;20.40;4.85;;;;;;;;;;5104299;28;20027;-61
2022/12/24 14:12:29;;;;;;;20.05;3.85;;;;;;;;;;5105728;28;20036;-63
2022/12/24 14:14:55;;;;;;;22.17;3.47;;;;;;;;;;5094246;28;20036;-65